sensor_id;sensor_type;location;lat;lon;timestamp;P1;durP1;ratioP1;P2;durP2;ratioP2
9106;SDS011;4589;48.690;8.952;2023-06-26T00:00:18;7.70;;;6.17;;
9106;SDS011;4589;48.690;8.952;2023-06-26T00:02:44;7.83;;;6.37;;
9106;SDS011;4589;48.690;8.952;2023-06-26T00:05:10;8.67;;;6.90;;
9106;SDS011;4589;48.690;8.952;2023-06-26T00:07:36;6.30;;;5.30;;
9106;SDS011;4589;48.690;8.952;2023-06-26T00:10:02;8.83;;;6.73;;
9106;SDS011;4589;48.690;8.952;2023-06-26T00:12:29;8.93;;;6.17;;
9106;SDS011;4589;48.690;8.952;2023-06-26T00:14:55;8.73;;;7.30;;
9106;SDS011;4589;48.690;8.952;2023-06-26T00:17:21;9.50;;;6.40;;
9106;SDS011;4589;48.690;8.952;2023-06-26T00:19:47;8.17;;;6.40;;
9106;SDS011;4589;48.690;8.952;2023-06-26T00:22:13;9.27;;;6.90;;
9106;SDS011;4589;48.690;8.952;2023-06-26T00:24:39;10.20;;;7.20;;
9106;SDS011;4589;48.690;8.952;2023-06-26T00:27:05;8.77;;;6.20;;
9106;SDS011;4589;48.690;8.952;2023-06-26T00:29:31;8.43;;;6.70;;
9106;SDS011;4589;48.690;8.952;2023-06-26T00:31:56;8.03;;;6.70;;
9106;SDS011;4589;48.690;8.952;2023-06-26T00:34:22;9.43;;;7.43;;
9106;SDS011;4589;48.690;8.952;2023-06-26T00:36:48;8.20;;;6.50;;
9106;SDS011;4589;48.690;8.952;2023-06-26T00:39:14;5.97;;;5.30;;
9106;SDS011;4589;48.690;8.952;2023-06-26T00:41:40;10.57;;;8.53;;
9106;SDS011;4589;48.690;8.952;2023-06-26T00:44:06;10.13;;;7.13;;
9106;SDS011;4589;48.690;8.952;2023-06-26T00:46:32;9.00;;;6.90;;
9106;SDS011;4589;48.690;8.952;2023-06-26T00:48:59;9.10;;;7.30;;
9106;SDS011;4589;48.690;8.952;2023-06-26T00:51:27;8.10;;;7.10;;
9106;SDS011;4589;48.690;8.952;2023-06-26T00:53:55;7.73;;;6.83;;
9106;SDS011;4589;48.690;8.952;2023-06-26T00:56:21;7.70;;;6.80;;
9106;SDS011;4589;48.690;8.952;2023-06-26T00:58:47;7.67;;;6.53;;
9106;SDS011;4589;48.690;8.952;2023-06-26T01:01:13;12.07;;;7.40;;
9106;SDS011;4589;48.690;8.952;2023-06-26T01:03:42;8.73;;;7.03;;
9106;SDS011;4589;48.690;8.952;2023-06-26T01:06:09;9.10;;;6.93;;
9106;SDS011;4589;48.690;8.952;2023-06-26T01:08:36;10.13;;;6.80;;
9106;SDS011;4589;48.690;8.952;2023-06-26T01:11:03;8.50;;;7.00;;
9106;SDS011;4589;48.690;8.952;2023-06-26T01:13:29;9.90;;;7.57;;
9106;SDS011;4589;48.690;8.952;2023-06-26T01:15:57;9.27;;;7.07;;
9106;SDS011;4589;48.690;8.952;2023-06-26T01:18:24;8.50;;;7.13;;
9106;SDS011;4589;48.690;8.952;2023-06-26T01:20:50;10.67;;;7.47;;
9106;SDS011;4589;48.690;8.952;2023-06-26T01:23:26;8.80;;;7.53;;
9106;SDS011;4589;48.690;8.952;2023-06-26T01:28:41;10.27;;;7.33;;
9106;SDS011;4589;48.690;8.952;2023-06-26T01:31:08;10.03;;;7.60;;
9106;SDS011;4589;48.690;8.952;2023-06-26T01:33:35;9.03;;;7.10;;
9106;SDS011;4589;48.690;8.952;2023-06-26T01:36:01;9.93;;;7.40;;
9106;SDS011;4589;48.690;8.952;2023-06-26T01:38:27;9.20;;;6.87;;
9106;SDS011;4589;48.690;8.952;2023-06-26T01:40:53;9.07;;;7.50;;
9106;SDS011;4589;48.690;8.952;2023-06-26T01:46:36;12.20;;;8.07;;
9106;SDS011;4589;48.690;8.952;2023-06-26T01:49:52;10.53;;;8.07;;
9106;SDS011;4589;48.690;8.952;2023-06-26T01:52:16;10.93;;;8.07;;
9106;SDS011;4589;48.690;8.952;2023-06-26T01:57:42;9.57;;;7.13;;
9106;SDS011;4589;48.690;8.952;2023-06-26T02:00:10;8.07;;;6.80;;
9106;SDS011;4589;48.690;8.952;2023-06-26T02:02:38;7.70;;;6.43;;
9106;SDS011;4589;48.690;8.952;2023-06-26T02:05:03;11.77;;;8.03;;
9106;SDS011;4589;48.690;8.952;2023-06-26T02:07:29;7.97;;;7.00;;
9106;SDS011;4589;48.690;8.952;2023-06-26T02:09:55;9.50;;;7.00;;
9106;SDS011;4589;48.690;8.952;2023-06-26T02:12:20;9.90;;;8.03;;
9106;SDS011;4589;48.690;8.952;2023-06-26T02:14:46;8.57;;;7.23;;
9106;SDS011;4589;48.690;8.952;2023-06-26T02:17:11;10.00;;;7.37;;
9106;SDS011;4589;48.690;8.952;2023-06-26T02:19:37;14.97;;;7.13;;
9106;SDS011;4589;48.690;8.952;2023-06-26T02:22:13;9.73;;;7.00;;
9106;SDS011;4589;48.690;8.952;2023-06-26T02:24:39;10.03;;;8.17;;
9106;SDS011;4589;48.690;8.952;2023-06-26T02:27:05;8.30;;;7.03;;
9106;SDS011;4589;48.690;8.952;2023-06-26T02:29:31;8.40;;;6.27;;
9106;SDS011;4589;48.690;8.952;2023-06-26T02:31:57;9.10;;;6.57;;
9106;SDS011;4589;48.690;8.952;2023-06-26T02:34:22;9.00;;;6.80;;
9106;SDS011;4589;48.690;8.952;2023-06-26T02:36:48;9.20;;;6.47;;
9106;SDS011;4589;48.690;8.952;2023-06-26T02:39:13;10.10;;;6.57;;
9106;SDS011;4589;48.690;8.952;2023-06-26T02:41:39;9.43;;;7.40;;
9106;SDS011;4589;48.690;8.952;2023-06-26T02:44:05;7.77;;;6.77;;
9106;SDS011;4589;48.690;8.952;2023-06-26T02:46:31;9.80;;;7.23;;
9106;SDS011;4589;48.690;8.952;2023-06-26T02:48:58;8.40;;;6.70;;
9106;SDS011;4589;48.690;8.952;2023-06-26T02:51:24;9.57;;;7.10;;
9106;SDS011;4589;48.690;8.952;2023-06-26T02:53:50;9.60;;;7.40;;
9106;SDS011;4589;48.690;8.952;2023-06-26T02:56:16;8.10;;;6.40;;
9106;SDS011;4589;48.690;8.952;2023-06-26T02:58:41;8.70;;;6.60;;
9106;SDS011;4589;48.690;8.952;2023-06-26T03:01:07;9.43;;;7.83;;
9106;SDS011;4589;48.690;8.952;2023-06-26T03:03:32;11.30;;;7.40;;
9106;SDS011;4589;48.690;8.952;2023-06-26T03:06:05;8.17;;;6.90;;
9106;SDS011;4589;48.690;8.952;2023-06-26T03:08:32;10.47;;;6.90;;
9106;SDS011;4589;48.690;8.952;2023-06-26T03:10:57;9.30;;;7.47;;
9106;SDS011;4589;48.690;8.952;2023-06-26T03:13:23;8.10;;;7.20;;
9106;SDS011;4589;48.690;8.952;2023-06-26T03:15:49;15.03;;;8.70;;
9106;SDS011;4589;48.690;8.952;2023-06-26T03:18:15;9.20;;;8.00;;
9106;SDS011;4589;48.690;8.952;2023-06-26T03:20:41;9.57;;;7.33;;
9106;SDS011;4589;48.690;8.952;2023-06-26T03:23:07;9.03;;;6.80;;
9106;SDS011;4589;48.690;8.952;2023-06-26T03:25:33;9.60;;;7.00;;
9106;SDS011;4589;48.690;8.952;2023-06-26T03:27:59;10.97;;;7.67;;
9106;SDS011;4589;48.690;8.952;2023-06-26T03:30:24;13.10;;;8.90;;
9106;SDS011;4589;48.690;8.952;2023-06-26T03:32:50;8.27;;;6.97;;
9106;SDS011;4589;48.690;8.952;2023-06-26T03:35:16;13.63;;;7.67;;
9106;SDS011;4589;48.690;8.952;2023-06-26T03:37:43;8.70;;;7.60;;
9106;SDS011;4589;48.690;8.952;2023-06-26T03:40:09;10.40;;;7.43;;
9106;SDS011;4589;48.690;8.952;2023-06-26T03:42:35;9.97;;;7.77;;
9106;SDS011;4589;48.690;8.952;2023-06-26T03:45:01;10.23;;;7.43;;
9106;SDS011;4589;48.690;8.952;2023-06-26T03:47:26;10.70;;;8.47;;
9106;SDS011;4589;48.690;8.952;2023-06-26T03:49:52;10.17;;;7.97;;
9106;SDS011;4589;48.690;8.952;2023-06-26T03:52:18;11.20;;;7.97;;
9106;SDS011;4589;48.690;8.952;2023-06-26T03:54:44;10.83;;;7.50;;
9106;SDS011;4589;48.690;8.952;2023-06-26T03:57:10;10.10;;;8.47;;
9106;SDS011;4589;48.690;8.952;2023-06-26T03:59:36;10.43;;;7.33;;
9106;SDS011;4589;48.690;8.952;2023-06-26T04:02:02;8.67;;;7.77;;
9106;SDS011;4589;48.690;8.952;2023-06-26T04:04:28;9.37;;;7.77;;
9106;SDS011;4589;48.690;8.952;2023-06-26T04:06:54;8.57;;;6.50;;
9106;SDS011;4589;48.690;8.952;2023-06-26T04:09:20;12.10;;;7.83;;
9106;SDS011;4589;48.690;8.952;2023-06-26T04:11:45;10.67;;;7.23;;
9106;SDS011;4589;48.690;8.952;2023-06-26T04:14:11;8.47;;;7.40;;
9106;SDS011;4589;48.690;8.952;2023-06-26T04:16:37;8.77;;;6.93;;
9106;SDS011;4589;48.690;8.952;2023-06-26T04:19:03;11.53;;;7.23;;
9106;SDS011;4589;48.690;8.952;2023-06-26T04:21:29;10.00;;;7.23;;
9106;SDS011;4589;48.690;8.952;2023-06-26T04:23:55;10.53;;;7.57;;
9106;SDS011;4589;48.690;8.952;2023-06-26T04:26:21;11.83;;;8.63;;
9106;SDS011;4589;48.690;8.952;2023-06-26T04:28:47;15.80;;;7.93;;
9106;SDS011;4589;48.690;8.952;2023-06-26T04:31:13;7.77;;;6.83;;
9106;SDS011;4589;48.690;8.952;2023-06-26T04:33:38;10.60;;;6.50;;
9106;SDS011;4589;48.690;8.952;2023-06-26T04:36:05;8.80;;;7.13;;
9106;SDS011;4589;48.690;8.952;2023-06-26T04:38:34;8.20;;;6.33;;
9106;SDS011;4589;48.690;8.952;2023-06-26T04:41:00;9.60;;;7.03;;
9106;SDS011;4589;48.690;8.952;2023-06-26T04:43:26;10.43;;;7.90;;
9106;SDS011;4589;48.690;8.952;2023-06-26T04:45:51;9.80;;;6.83;;
9106;SDS011;4589;48.690;8.952;2023-06-26T04:48:17;8.93;;;7.50;;
9106;SDS011;4589;48.690;8.952;2023-06-26T04:50:43;7.97;;;6.47;;
9106;SDS011;4589;48.690;8.952;2023-06-26T04:53:10;8.90;;;7.20;;
9106;SDS011;4589;48.690;8.952;2023-06-26T04:55:36;7.40;;;6.60;;
9106;SDS011;4589;48.690;8.952;2023-06-26T04:58:02;8.60;;;6.20;;
9106;SDS011;4589;48.690;8.952;2023-06-26T05:00:27;9.00;;;7.30;;
9106;SDS011;4589;48.690;8.952;2023-06-26T05:02:53;11.80;;;7.97;;
9106;SDS011;4589;48.690;8.952;2023-06-26T05:05:26;18.17;;;8.07;;
9106;SDS011;4589;48.690;8.952;2023-06-26T05:07:53;12.63;;;7.10;;
9106;SDS011;4589;48.690;8.952;2023-06-26T05:10:20;9.30;;;6.87;;
9106;SDS011;4589;48.690;8.952;2023-06-26T05:12:45;13.23;;;6.47;;
9106;SDS011;4589;48.690;8.952;2023-06-26T05:15:11;10.40;;;7.47;;
9106;SDS011;4589;48.690;8.952;2023-06-26T05:17:37;8.93;;;7.20;;
9106;SDS011;4589;48.690;8.952;2023-06-26T05:20:02;13.07;;;7.47;;
9106;SDS011;4589;48.690;8.952;2023-06-26T05:22:34;11.33;;;6.93;;
9106;SDS011;4589;48.690;8.952;2023-06-26T05:25:03;14.13;;;7.37;;
9106;SDS011;4589;48.690;8.952;2023-06-26T05:27:30;8.60;;;6.40;;
9106;SDS011;4589;48.690;8.952;2023-06-26T05:29:56;7.83;;;6.83;;
9106;SDS011;4589;48.690;8.952;2023-06-26T05:32:21;7.43;;;6.53;;
9106;SDS011;4589;48.690;8.952;2023-06-26T05:34:48;7.93;;;6.33;;
9106;SDS011;4589;48.690;8.952;2023-06-26T05:37:19;7.60;;;6.10;;
9106;SDS011;4589;48.690;8.952;2023-06-26T05:39:46;9.93;;;6.80;;
9106;SDS011;4589;48.690;8.952;2023-06-26T05:42:12;7.50;;;6.60;;
9106;SDS011;4589;48.690;8.952;2023-06-26T05:44:38;6.87;;;6.10;;
9106;SDS011;4589;48.690;8.952;2023-06-26T05:47:04;8.20;;;6.93;;
9106;SDS011;4589;48.690;8.952;2023-06-26T05:49:30;8.77;;;6.60;;
9106;SDS011;4589;48.690;8.952;2023-06-26T05:51:56;7.80;;;6.17;;
9106;SDS011;4589;48.690;8.952;2023-06-26T05:54:23;6.93;;;6.23;;
9106;SDS011;4589;48.690;8.952;2023-06-26T05:56:49;7.10;;;6.03;;
9106;SDS011;4589;48.690;8.952;2023-06-26T05:59:24;7.23;;;5.53;;
9106;SDS011;4589;48.690;8.952;2023-06-26T06:01:51;8.37;;;7.53;;
9106;SDS011;4589;48.690;8.952;2023-06-26T06:04:17;6.10;;;5.50;;
9106;SDS011;4589;48.690;8.952;2023-06-26T06:06:43;7.03;;;6.33;;
9106;SDS011;4589;48.690;8.952;2023-06-26T06:09:09;8.47;;;6.90;;
9106;SDS011;4589;48.690;8.952;2023-06-26T06:11:34;8.50;;;6.50;;
9106;SDS011;4589;48.690;8.952;2023-06-26T06:14:00;8.10;;;6.73;;
9106;SDS011;4589;48.690;8.952;2023-06-26T06:16:26;8.00;;;6.10;;
9106;SDS011;4589;48.690;8.952;2023-06-26T06:18:54;6.17;;;5.57;;
9106;SDS011;4589;48.690;8.952;2023-06-26T06:21:19;8.20;;;6.67;;
9106;SDS011;4589;48.690;8.952;2023-06-26T06:23:45;8.57;;;6.40;;
9106;SDS011;4589;48.690;8.952;2023-06-26T06:26:11;11.10;;;7.03;;
9106;SDS011;4589;48.690;8.952;2023-06-26T06:28:37;10.90;;;6.70;;
9106;SDS011;4589;48.690;8.952;2023-06-26T06:31:04;11.10;;;6.00;;
9106;SDS011;4589;48.690;8.952;2023-06-26T06:33:29;6.50;;;5.80;;
9106;SDS011;4589;48.690;8.952;2023-06-26T06:35:55;8.87;;;5.87;;
9106;SDS011;4589;48.690;8.952;2023-06-26T06:38:21;9.70;;;5.50;;
9106;SDS011;4589;48.690;8.952;2023-06-26T06:40:47;8.70;;;6.67;;
9106;SDS011;4589;48.690;8.952;2023-06-26T06:43:13;6.20;;;5.60;;
9106;SDS011;4589;48.690;8.952;2023-06-26T06:45:39;11.57;;;5.50;;
9106;SDS011;4589;48.690;8.952;2023-06-26T06:48:04;8.20;;;6.33;;
9106;SDS011;4589;48.690;8.952;2023-06-26T06:50:30;12.67;;;5.90;;
9106;SDS011;4589;48.690;8.952;2023-06-26T06:52:56;11.77;;;5.37;;
9106;SDS011;4589;48.690;8.952;2023-06-26T06:55:22;5.30;;;4.80;;
9106;SDS011;4589;48.690;8.952;2023-06-26T06:57:48;7.63;;;5.20;;
9106;SDS011;4589;48.690;8.952;2023-06-26T07:00:15;14.40;;;5.70;;
9106;SDS011;4589;48.690;8.952;2023-06-26T07:02:42;10.93;;;5.00;;
9106;SDS011;4589;48.690;8.952;2023-06-26T07:05:09;8.37;;;5.40;;
9106;SDS011;4589;48.690;8.952;2023-06-26T07:07:35;5.73;;;5.20;;
9106;SDS011;4589;48.690;8.952;2023-06-26T07:10:03;15.87;;;6.13;;
9106;SDS011;4589;48.690;8.952;2023-06-26T07:12:30;7.30;;;5.10;;
9106;SDS011;4589;48.690;8.952;2023-06-26T07:14:56;10.03;;;5.70;;
9106;SDS011;4589;48.690;8.952;2023-06-26T07:17:22;6.00;;;5.50;;
9106;SDS011;4589;48.690;8.952;2023-06-26T07:19:48;5.47;;;5.07;;
9106;SDS011;4589;48.690;8.952;2023-06-26T07:22:14;13.53;;;5.63;;
9106;SDS011;4589;48.690;8.952;2023-06-26T07:24:40;5.50;;;5.00;;
9106;SDS011;4589;48.690;8.952;2023-06-26T07:27:06;12.23;;;6.33;;
9106;SDS011;4589;48.690;8.952;2023-06-26T07:29:31;5.87;;;4.67;;
9106;SDS011;4589;48.690;8.952;2023-06-26T07:31:57;11.80;;;5.40;;
9106;SDS011;4589;48.690;8.952;2023-06-26T07:34:22;5.33;;;4.83;;
9106;SDS011;4589;48.690;8.952;2023-06-26T07:36:48;5.43;;;4.93;;
9106;SDS011;4589;48.690;8.952;2023-06-26T07:39:13;5.00;;;4.60;;
9106;SDS011;4589;48.690;8.952;2023-06-26T07:41:39;4.80;;;4.40;;
9106;SDS011;4589;48.690;8.952;2023-06-26T07:44:05;4.83;;;4.40;;
9106;SDS011;4589;48.690;8.952;2023-06-26T07:46:30;6.23;;;4.07;;
9106;SDS011;4589;48.690;8.952;2023-06-26T07:48:56;4.83;;;4.43;;
9106;SDS011;4589;48.690;8.952;2023-06-26T07:51:21;9.40;;;4.53;;
9106;SDS011;4589;48.690;8.952;2023-06-26T07:53:47;4.87;;;4.30;;
9106;SDS011;4589;48.690;8.952;2023-06-26T07:56:12;4.50;;;4.10;;
9106;SDS011;4589;48.690;8.952;2023-06-26T07:58:38;4.60;;;4.30;;
9106;SDS011;4589;48.690;8.952;2023-06-26T08:01:04;4.30;;;4.00;;
9106;SDS011;4589;48.690;8.952;2023-06-26T08:03:29;6.57;;;4.80;;
9106;SDS011;4589;48.690;8.952;2023-06-26T08:05:55;5.90;;;4.07;;
9106;SDS011;4589;48.690;8.952;2023-06-26T08:08:20;4.20;;;3.90;;
9106;SDS011;4589;48.690;8.952;2023-06-26T08:10:46;4.30;;;4.00;;
9106;SDS011;4589;48.690;8.952;2023-06-26T08:13:12;4.57;;;4.27;;
9106;SDS011;4589;48.690;8.952;2023-06-26T08:15:38;4.27;;;3.97;;
9106;SDS011;4589;48.690;8.952;2023-06-26T08:18:04;4.40;;;4.10;;
9106;SDS011;4589;48.690;8.952;2023-06-26T08:20:30;4.00;;;3.70;;
9106;SDS011;4589;48.690;8.952;2023-06-26T08:22:55;4.37;;;3.63;;
9106;SDS011;4589;48.690;8.952;2023-06-26T08:25:21;4.33;;;4.03;;
9106;SDS011;4589;48.690;8.952;2023-06-26T08:27:53;4.90;;;4.50;;
9106;SDS011;4589;48.690;8.952;2023-06-26T08:30:20;4.40;;;4.10;;
9106;SDS011;4589;48.690;8.952;2023-06-26T08:32:46;4.20;;;3.80;;
9106;SDS011;4589;48.690;8.952;2023-06-26T08:35:12;6.73;;;4.50;;
9106;SDS011;4589;48.690;8.952;2023-06-26T08:37:38;4.70;;;4.30;;
9106;SDS011;4589;48.690;8.952;2023-06-26T08:40:04;4.53;;;4.03;;
9106;SDS011;4589;48.690;8.952;2023-06-26T08:42:31;5.37;;;4.33;;
9106;SDS011;4589;48.690;8.952;2023-06-26T08:44:56;4.27;;;3.97;;
9106;SDS011;4589;48.690;8.952;2023-06-26T08:47:22;4.83;;;4.33;;
9106;SDS011;4589;48.690;8.952;2023-06-26T08:55:33;8.50;;;4.63;;
9106;SDS011;4589;48.690;8.952;2023-06-26T08:58:02;4.97;;;4.57;;
9106;SDS011;4589;48.690;8.952;2023-06-26T09:00:29;5.10;;;4.60;;
9106;SDS011;4589;48.690;8.952;2023-06-26T09:02:55;4.10;;;3.80;;
9106;SDS011;4589;48.690;8.952;2023-06-26T09:05:21;5.33;;;4.80;;
9106;SDS011;4589;48.690;8.952;2023-06-26T09:07:47;4.53;;;4.23;;
9106;SDS011;4589;48.690;8.952;2023-06-26T09:10:13;4.53;;;4.17;;
9106;SDS011;4589;48.690;8.952;2023-06-26T09:12:38;4.93;;;4.63;;
9106;SDS011;4589;48.690;8.952;2023-06-26T09:15:05;4.40;;;4.10;;
9106;SDS011;4589;48.690;8.952;2023-06-26T09:17:33;4.50;;;4.20;;
9106;SDS011;4589;48.690;8.952;2023-06-26T09:20:07;4.70;;;4.30;;
9106;SDS011;4589;48.690;8.952;2023-06-26T09:22:38;5.37;;;4.97;;
9106;SDS011;4589;48.690;8.952;2023-06-26T09:25:05;5.10;;;4.70;;
9106;SDS011;4589;48.690;8.952;2023-06-26T09:27:31;5.50;;;4.23;;
9106;SDS011;4589;48.690;8.952;2023-06-26T09:29:57;6.17;;;5.27;;
9106;SDS011;4589;48.690;8.952;2023-06-26T09:32:26;4.87;;;4.47;;
9106;SDS011;4589;48.690;8.952;2023-06-26T09:34:53;4.47;;;4.17;;
9106;SDS011;4589;48.690;8.952;2023-06-26T09:37:22;5.10;;;4.70;;
9106;SDS011;4589;48.690;8.952;2023-06-26T09:39:48;4.90;;;4.50;;
9106;SDS011;4589;48.690;8.952;2023-06-26T09:42:14;5.03;;;4.63;;
9106;SDS011;4589;48.690;8.952;2023-06-26T09:44:47;5.90;;;4.83;;
9106;SDS011;4589;48.690;8.952;2023-06-26T09:47:15;5.27;;;4.87;;
9106;SDS011;4589;48.690;8.952;2023-06-26T09:49:41;5.00;;;4.60;;
9106;SDS011;4589;48.690;8.952;2023-06-26T09:52:08;4.70;;;4.30;;
9106;SDS011;4589;48.690;8.952;2023-06-26T09:54:34;4.73;;;4.43;;
9106;SDS011;4589;48.690;8.952;2023-06-26T09:57:09;5.93;;;4.90;;
9106;SDS011;4589;48.690;8.952;2023-06-26T09:59:36;7.10;;;5.33;;
9106;SDS011;4589;48.690;8.952;2023-06-26T10:02:02;7.00;;;5.20;;
9106;SDS011;4589;48.690;8.952;2023-06-26T10:04:27;5.10;;;4.70;;
9106;SDS011;4589;48.690;8.952;2023-06-26T10:06:56;4.80;;;4.43;;
9106;SDS011;4589;48.690;8.952;2023-06-26T10:09:23;5.57;;;4.57;;
9106;SDS011;4589;48.690;8.952;2023-06-26T10:14:15;4.97;;;4.57;;
9106;SDS011;4589;48.690;8.952;2023-06-26T10:16:41;4.90;;;4.50;;
9106;SDS011;4589;48.690;8.952;2023-06-26T10:19:09;5.60;;;5.00;;
9106;SDS011;4589;48.690;8.952;2023-06-26T10:21:36;6.53;;;5.03;;
9106;SDS011;4589;48.690;8.952;2023-06-26T10:24:03;5.70;;;5.20;;
9106;SDS011;4589;48.690;8.952;2023-06-26T10:26:31;5.50;;;5.10;;
9106;SDS011;4589;48.690;8.952;2023-06-26T10:28:59;5.50;;;5.00;;
9106;SDS011;4589;48.690;8.952;2023-06-26T10:31:26;5.73;;;5.20;;
9106;SDS011;4589;48.690;8.952;2023-06-26T10:33:53;5.53;;;5.03;;
9106;SDS011;4589;48.690;8.952;2023-06-26T10:36:20;6.77;;;6.07;;
9106;SDS011;4589;48.690;8.952;2023-06-26T10:38:52;5.70;;;5.20;;
9106;SDS011;4589;48.690;8.952;2023-06-26T10:41:23;6.13;;;5.53;;
9106;SDS011;4589;48.690;8.952;2023-06-26T10:43:50;6.23;;;5.63;;
9106;SDS011;4589;48.690;8.952;2023-06-26T10:46:24;5.57;;;5.07;;
9106;SDS011;4589;48.690;8.952;2023-06-26T10:48:57;6.73;;;6.03;;
9106;SDS011;4589;48.690;8.952;2023-06-26T10:51:26;5.50;;;5.03;;
9106;SDS011;4589;48.690;8.952;2023-06-26T10:53:56;7.60;;;5.27;;
9106;SDS011;4589;48.690;8.952;2023-06-26T10:56:44;5.70;;;5.20;;
9106;SDS011;4589;48.690;8.952;2023-06-26T10:59:14;5.80;;;5.30;;
9106;SDS011;4589;48.690;8.952;2023-06-26T11:01:41;5.70;;;5.20;;
9106;SDS011;4589;48.690;8.952;2023-06-26T11:04:10;6.87;;;5.17;;
9106;SDS011;4589;48.690;8.952;2023-06-26T11:06:37;5.77;;;5.17;;
9106;SDS011;4589;48.690;8.952;2023-06-26T11:09:07;6.90;;;5.20;;
9106;SDS011;4589;48.690;8.952;2023-06-26T11:14:24;5.37;;;4.87;;
9106;SDS011;4589;48.690;8.952;2023-06-26T11:16:52;5.00;;;4.60;;
9106;SDS011;4589;48.690;8.952;2023-06-26T11:19:18;5.93;;;5.43;;
9106;SDS011;4589;48.690;8.952;2023-06-26T11:21:44;5.00;;;4.60;;
9106;SDS011;4589;48.690;8.952;2023-06-26T11:24:11;5.47;;;5.07;;
9106;SDS011;4589;48.690;8.952;2023-06-26T11:26:38;5.80;;;5.30;;
9106;SDS011;4589;48.690;8.952;2023-06-26T11:29:04;5.30;;;4.80;;
9106;SDS011;4589;48.690;8.952;2023-06-26T11:31:30;6.13;;;5.17;;
9106;SDS011;4589;48.690;8.952;2023-06-26T11:34:01;6.27;;;5.77;;
9106;SDS011;4589;48.690;8.952;2023-06-26T11:36:28;6.03;;;5.53;;
9106;SDS011;4589;48.690;8.952;2023-06-26T11:38:55;5.57;;;5.17;;
9106;SDS011;4589;48.690;8.952;2023-06-26T11:41:22;6.10;;;5.50;;
9106;SDS011;4589;48.690;8.952;2023-06-26T11:43:49;5.50;;;5.00;;
9106;SDS011;4589;48.690;8.952;2023-06-26T11:46:18;9.93;;;6.30;;
9106;SDS011;4589;48.690;8.952;2023-06-26T11:48:45;5.90;;;5.40;;
9106;SDS011;4589;48.690;8.952;2023-06-26T11:51:14;5.70;;;5.20;;
9106;SDS011;4589;48.690;8.952;2023-06-26T11:53:43;5.93;;;5.47;;
9106;SDS011;4589;48.690;8.952;2023-06-26T11:56:09;6.17;;;5.67;;
9106;SDS011;4589;48.690;8.952;2023-06-26T12:01:43;5.33;;;4.90;;
9106;SDS011;4589;48.690;8.952;2023-06-26T12:04:13;6.63;;;5.60;;
9106;SDS011;4589;48.690;8.952;2023-06-26T12:06:42;7.93;;;5.97;;
9106;SDS011;4589;48.690;8.952;2023-06-26T12:09:11;5.23;;;4.77;;
9106;SDS011;4589;48.690;8.952;2023-06-26T12:11:38;5.30;;;4.90;;
9106;SDS011;4589;48.690;8.952;2023-06-26T12:14:07;5.60;;;5.10;;
9106;SDS011;4589;48.690;8.952;2023-06-26T12:16:34;6.23;;;4.90;;
9106;SDS011;4589;48.690;8.952;2023-06-26T12:19:00;5.80;;;5.30;;
9106;SDS011;4589;48.690;8.952;2023-06-26T12:24:01;6.00;;;5.37;;
9106;SDS011;4589;48.690;8.952;2023-06-26T12:26:28;5.33;;;4.83;;
9106;SDS011;4589;48.690;8.952;2023-06-26T12:29:01;5.87;;;5.33;;
9106;SDS011;4589;48.690;8.952;2023-06-26T12:31:51;5.43;;;4.93;;
9106;SDS011;4589;48.690;8.952;2023-06-26T12:34:21;9.43;;;5.33;;
9106;SDS011;4589;48.690;8.952;2023-06-26T12:36:59;5.10;;;4.47;;
9106;SDS011;4589;48.690;8.952;2023-06-26T12:39:44;7.90;;;5.30;;
9106;SDS011;4589;48.690;8.952;2023-06-26T12:42:12;8.07;;;5.83;;
9106;SDS011;4589;48.690;8.952;2023-06-26T12:44:40;9.57;;;5.10;;
9106;SDS011;4589;48.690;8.952;2023-06-26T12:47:05;6.73;;;5.20;;
9106;SDS011;4589;48.690;8.952;2023-06-26T12:52:03;7.30;;;5.03;;
9106;SDS011;4589;48.690;8.952;2023-06-26T12:54:37;6.33;;;5.20;;
9106;SDS011;4589;48.690;8.952;2023-06-26T12:57:04;7.03;;;5.60;;
9106;SDS011;4589;48.690;8.952;2023-06-26T12:59:30;6.83;;;5.40;;
9106;SDS011;4589;48.690;8.952;2023-06-26T13:01:57;5.53;;;5.03;;
9106;SDS011;4589;48.690;8.952;2023-06-26T13:04:23;9.50;;;5.43;;
9106;SDS011;4589;48.690;8.952;2023-06-26T13:06:49;6.20;;;5.67;;
9106;SDS011;4589;48.690;8.952;2023-06-26T13:09:15;5.97;;;5.20;;
9106;SDS011;4589;48.690;8.952;2023-06-26T13:11:41;6.30;;;5.00;;
9106;SDS011;4589;48.690;8.952;2023-06-26T13:14:07;7.60;;;6.00;;
9106;SDS011;4589;48.690;8.952;2023-06-26T13:16:33;8.40;;;5.43;;
9106;SDS011;4589;48.690;8.952;2023-06-26T13:18:59;6.00;;;5.40;;
9106;SDS011;4589;48.690;8.952;2023-06-26T13:21:26;7.77;;;5.43;;
9106;SDS011;4589;48.690;8.952;2023-06-26T13:23:52;5.23;;;4.73;;
9106;SDS011;4589;48.690;8.952;2023-06-26T13:26:18;5.17;;;4.30;;
9106;SDS011;4589;48.690;8.952;2023-06-26T13:28:44;6.57;;;5.10;;
9106;SDS011;4589;48.690;8.952;2023-06-26T13:31:10;6.33;;;5.43;;
9106;SDS011;4589;48.690;8.952;2023-06-26T13:33:35;4.77;;;4.37;;
9106;SDS011;4589;48.690;8.952;2023-06-26T13:36:01;5.37;;;4.87;;
9106;SDS011;4589;48.690;8.952;2023-06-26T13:38:29;5.77;;;5.07;;
9106;SDS011;4589;48.690;8.952;2023-06-26T13:40:56;7.47;;;5.00;;
9106;SDS011;4589;48.690;8.952;2023-06-26T13:43:25;5.30;;;4.50;;
9106;SDS011;4589;48.690;8.952;2023-06-26T13:45:51;7.73;;;4.67;;
9106;SDS011;4589;48.690;8.952;2023-06-26T13:48:17;6.20;;;4.40;;
9106;SDS011;4589;48.690;8.952;2023-06-26T13:50:43;5.23;;;4.47;;
9106;SDS011;4589;48.690;8.952;2023-06-26T13:53:09;5.33;;;4.50;;
9106;SDS011;4589;48.690;8.952;2023-06-26T13:55:35;5.53;;;5.03;;
9106;SDS011;4589;48.690;8.952;2023-06-26T13:58:02;4.47;;;4.17;;
9106;SDS011;4589;48.690;8.952;2023-06-26T14:00:30;5.23;;;4.70;;
9106;SDS011;4589;48.690;8.952;2023-06-26T14:02:56;4.37;;;3.80;;
9106;SDS011;4589;48.690;8.952;2023-06-26T14:05:22;5.23;;;4.00;;
9106;SDS011;4589;48.690;8.952;2023-06-26T14:07:48;4.80;;;4.27;;
9106;SDS011;4589;48.690;8.952;2023-06-26T14:10:14;4.30;;;3.90;;
9106;SDS011;4589;48.690;8.952;2023-06-26T14:12:40;5.80;;;4.23;;
9106;SDS011;4589;48.690;8.952;2023-06-26T14:15:06;5.77;;;4.00;;
9106;SDS011;4589;48.690;8.952;2023-06-26T14:17:32;5.67;;;4.33;;
9106;SDS011;4589;48.690;8.952;2023-06-26T14:19:58;5.17;;;4.30;;
9106;SDS011;4589;48.690;8.952;2023-06-26T14:22:24;5.17;;;4.40;;
9106;SDS011;4589;48.690;8.952;2023-06-26T14:24:50;5.47;;;4.00;;
9106;SDS011;4589;48.690;8.952;2023-06-26T14:27:15;4.00;;;3.70;;
9106;SDS011;4589;48.690;8.952;2023-06-26T14:29:41;4.13;;;3.73;;
9106;SDS011;4589;48.690;8.952;2023-06-26T14:32:07;7.73;;;3.77;;
9106;SDS011;4589;48.690;8.952;2023-06-26T14:34:33;5.30;;;3.67;;
9106;SDS011;4589;48.690;8.952;2023-06-26T14:36:58;4.17;;;3.77;;
9106;SDS011;4589;48.690;8.952;2023-06-26T14:39:24;3.97;;;3.10;;
9106;SDS011;4589;48.690;8.952;2023-06-26T14:41:50;3.77;;;3.37;;
9106;SDS011;4589;48.690;8.952;2023-06-26T14:44:15;4.63;;;3.73;;
9106;SDS011;4589;48.690;8.952;2023-06-26T14:46:41;3.60;;;3.30;;
9106;SDS011;4589;48.690;8.952;2023-06-26T14:49:07;5.87;;;3.63;;
9106;SDS011;4589;48.690;8.952;2023-06-26T14:51:33;4.53;;;3.60;;
9106;SDS011;4589;48.690;8.952;2023-06-26T14:53:59;4.67;;;3.50;;
9106;SDS011;4589;48.690;8.952;2023-06-26T14:56:25;3.77;;;3.37;;
9106;SDS011;4589;48.690;8.952;2023-06-26T14:58:51;6.83;;;3.30;;
9106;SDS011;4589;48.690;8.952;2023-06-26T15:01:17;4.23;;;3.83;;
9106;SDS011;4589;48.690;8.952;2023-06-26T15:03:44;6.87;;;4.30;;
9106;SDS011;4589;48.690;8.952;2023-06-26T15:06:11;4.63;;;4.10;;
9106;SDS011;4589;48.690;8.952;2023-06-26T15:08:36;5.13;;;4.03;;
9106;SDS011;4589;48.690;8.952;2023-06-26T15:11:02;5.37;;;3.80;;
9106;SDS011;4589;48.690;8.952;2023-06-26T15:13:28;5.77;;;3.97;;
9106;SDS011;4589;48.690;8.952;2023-06-26T15:15:53;5.47;;;4.37;;
9106;SDS011;4589;48.690;8.952;2023-06-26T15:18:19;4.50;;;4.10;;
9106;SDS011;4589;48.690;8.952;2023-06-26T15:20:45;6.83;;;4.33;;
9106;SDS011;4589;48.690;8.952;2023-06-26T15:23:10;4.03;;;3.60;;
9106;SDS011;4589;48.690;8.952;2023-06-26T15:25:36;3.93;;;3.63;;
9106;SDS011;4589;48.690;8.952;2023-06-26T15:28:03;5.57;;;3.80;;
9106;SDS011;4589;48.690;8.952;2023-06-26T15:30:29;6.77;;;4.47;;
9106;SDS011;4589;48.690;8.952;2023-06-26T15:32:54;5.27;;;4.30;;
9106;SDS011;4589;48.690;8.952;2023-06-26T15:35:20;6.03;;;4.97;;
9106;SDS011;4589;48.690;8.952;2023-06-26T15:37:46;6.50;;;4.77;;